createdAt,value
2023-04-30T00:01:43.256Z,16.64
2023-04-30T00:04:10.614Z,16.63
2023-04-30T00:06:37.775Z,16.69
2023-04-30T00:09:04.967Z,16.60
2023-04-30T00:11:32.111Z,16.54
2023-04-30T00:13:59.381Z,16.51
2023-04-30T00:16:26.905Z,16.50
2023-04-30T00:18:54.066Z,16.55
2023-04-30T00:21:22.759Z,16.55
2023-04-30T00:23:50.646Z,16.51
2023-04-30T00:26:17.784Z,16.49
2023-04-30T00:28:48.494Z,16.42
2023-04-30T00:31:15.790Z,16.45
2023-04-30T00:33:42.932Z,16.40
2023-04-30T00:36:10.489Z,16.31
2023-04-30T00:38:37.736Z,16.38
2023-04-30T00:41:05.294Z,16.37
2023-04-30T00:43:34.253Z,16.29
2023-04-30T00:46:03.795Z,16.28
2023-04-30T00:48:31.141Z,16.30
2023-04-30T00:50:58.368Z,16.36
2023-04-30T00:53:26.403Z,16.31
2023-04-30T00:55:55.856Z,16.19
2023-04-30T00:58:23.255Z,16.18
2023-04-30T01:00:51.180Z,16.14
2023-04-30T01:03:18.671Z,16.18
2023-04-30T01:05:46.061Z,16.21
2023-04-30T01:08:13.233Z,16.15
2023-04-30T01:11:11.119Z,16.14
2023-04-30T01:14:04.566Z,16.09
2023-04-30T01:17:28.608Z,16.14
2023-04-30T01:19:56.526Z,16.04
2023-04-30T01:22:26.742Z,16.11
2023-04-30T01:25:40.010Z,16.05
2023-04-30T01:28:16.846Z,15.96
2023-04-30T01:30:45.144Z,15.96
2023-04-30T01:33:13.777Z,15.88
2023-04-30T01:36:40.556Z,15.82
2023-04-30T01:39:52.053Z,15.78
2023-04-30T01:42:43.501Z,15.82
2023-04-30T01:45:47.987Z,15.81
2023-04-30T01:48:43.745Z,15.86
2023-04-30T01:51:29.162Z,15.95
2023-04-30T01:54:03.557Z,16.03
2023-04-30T01:56:41.406Z,15.91
2023-04-30T01:59:10.160Z,15.95
2023-04-30T02:01:37.720Z,16.01
2023-04-30T02:04:05.307Z,15.94
2023-04-30T02:06:33.457Z,16.01
2023-04-30T02:09:05.446Z,16.11
2023-04-30T02:11:32.831Z,16.04
2023-04-30T02:13:59.986Z,15.95
2023-04-30T02:16:27.289Z,15.84
2023-04-30T02:18:54.527Z,15.82
2023-04-30T02:21:21.889Z,15.87
2023-04-30T02:23:49.666Z,15.86
2023-04-30T02:26:16.921Z,15.91
2023-04-30T02:28:44.081Z,15.84
2023-04-30T02:31:12.088Z,15.76
2023-04-30T02:33:39.267Z,15.67
2023-04-30T02:36:06.694Z,15.69
2023-04-30T02:38:33.903Z,15.75
2023-04-30T02:41:02.257Z,15.81
2023-04-30T02:43:29.469Z,15.81
2023-04-30T02:45:56.756Z,15.80
2023-04-30T02:48:24.149Z,15.78
2023-04-30T02:50:51.311Z,15.72
2023-04-30T02:53:18.488Z,15.69
2023-04-30T02:55:46.139Z,15.66
2023-04-30T02:58:13.599Z,15.67
2023-04-30T03:00:40.933Z,15.70
2023-04-30T03:03:08.347Z,15.57
2023-04-30T03:05:35.667Z,15.55
2023-04-30T03:08:03.347Z,15.60
2023-04-30T03:10:30.618Z,15.61
2023-04-30T03:12:57.895Z,15.59
2023-04-30T03:15:25.031Z,15.53
2023-04-30T03:17:52.447Z,15.44
2023-04-30T03:20:19.950Z,15.40
2023-04-30T03:22:47.092Z,15.35
2023-04-30T03:25:14.553Z,15.33
2023-04-30T03:27:41.925Z,15.33
2023-04-30T03:30:09.711Z,15.40
2023-04-30T03:32:39.976Z,15.55
2023-04-30T03:35:08.649Z,15.60
2023-04-30T03:37:35.808Z,15.53
2023-04-30T03:40:03.583Z,15.47
2023-04-30T03:42:31.170Z,15.44
2023-04-30T03:44:58.438Z,15.46
2023-04-30T03:47:25.711Z,15.41
2023-04-30T03:49:55.423Z,15.36
2023-04-30T03:52:23.555Z,15.35
2023-04-30T03:54:51.106Z,15.28
2023-04-30T03:57:19.748Z,15.25
2023-04-30T03:59:47.777Z,15.17
2023-04-30T04:02:16.029Z,15.19
2023-04-30T04:04:43.967Z,15.21
2023-04-30T04:07:12.901Z,15.21
2023-04-30T04:09:40.549Z,15.24
2023-04-30T04:12:07.871Z,15.24
2023-04-30T04:14:35.812Z,15.19
2023-04-30T04:17:05.714Z,15.25
2023-04-30T04:19:33.347Z,15.21
2023-04-30T04:22:00.902Z,15.19
2023-04-30T04:24:28.242Z,15.29
2023-04-30T04:26:56.036Z,15.24
2023-04-30T04:29:23.419Z,15.24
2023-04-30T04:31:51.165Z,15.21
2023-04-30T04:34:20.035Z,15.15
2023-04-30T04:36:47.651Z,15.18
2023-04-30T04:39:15.243Z,15.17
2023-04-30T04:41:42.577Z,15.15
2023-04-30T04:44:09.876Z,15.24
2023-04-30T04:46:42.299Z,15.22
2023-04-30T04:49:09.952Z,15.29
2023-04-30T04:51:37.109Z,15.30
2023-04-30T04:54:04.531Z,15.26
2023-04-30T04:56:31.683Z,15.32
2023-04-30T04:58:59.327Z,15.20
2023-04-30T05:01:26.885Z,15.11
2023-04-30T05:03:55.057Z,15.02
2023-04-30T05:06:22.796Z,14.94
2023-04-30T05:08:50.403Z,14.83
2023-04-30T05:11:17.600Z,14.86
2023-04-30T05:13:44.976Z,14.90
2023-04-30T05:16:12.231Z,14.97
2023-04-30T05:18:39.463Z,15.04
2023-04-30T05:21:06.691Z,15.04
2023-04-30T05:23:33.902Z,15.02
2023-04-30T05:26:01.243Z,15.01
2023-04-30T05:28:28.390Z,15.01
2023-04-30T05:30:55.767Z,15.07
2023-04-30T05:33:22.995Z,15.16
2023-04-30T05:35:50.365Z,15.16
2023-04-30T05:38:17.538Z,15.22
2023-04-30T05:40:44.715Z,15.19
2023-04-30T05:43:11.953Z,15.09
2023-04-30T05:45:41.633Z,15.16
2023-04-30T05:48:08.810Z,15.19
2023-04-30T05:50:36.446Z,15.18
2023-04-30T05:53:03.655Z,15.14
2023-04-30T05:55:31.247Z,15.26
2023-04-30T05:57:58.424Z,15.26
2023-04-30T06:00:25.740Z,15.32
2023-04-30T06:02:53.620Z,15.38
2023-04-30T06:05:20.962Z,15.33
2023-04-30T06:07:48.206Z,15.40
2023-04-30T06:10:15.660Z,15.42
2023-04-30T06:12:42.828Z,15.43
2023-04-30T06:15:10.510Z,15.54
2023-04-30T06:17:37.848Z,15.61
2023-04-30T06:20:07.156Z,15.68
2023-04-30T06:22:34.603Z,15.74
2023-04-30T06:25:01.772Z,15.72
2023-04-30T06:27:29.397Z,15.78
2023-04-30T06:29:56.694Z,16.05
2023-04-30T06:32:24.027Z,16.14
2023-04-30T06:34:51.181Z,16.27
2023-04-30T06:37:18.821Z,16.38
2023-04-30T06:39:45.954Z,16.44
2023-04-30T06:42:13.240Z,16.49
2023-04-30T06:44:40.408Z,16.55
2023-04-30T06:47:07.546Z,16.38
2023-04-30T06:49:34.754Z,16.54
2023-04-30T06:52:01.900Z,16.62
2023-04-30T06:54:29.214Z,16.55
2023-04-30T06:56:56.856Z,16.36
2023-04-30T06:59:23.997Z,16.35
2023-04-30T07:01:51.287Z,16.33
2023-04-30T07:04:19.564Z,16.27
2023-04-30T07:06:46.656Z,16.33
2023-04-30T07:09:15.534Z,16.49
2023-04-30T07:11:42.771Z,16.46
2023-04-30T07:14:09.928Z,16.24
2023-04-30T07:16:37.049Z,16.37
2023-04-30T07:19:04.176Z,16.39
2023-04-30T07:21:32.634Z,16.36
2023-04-30T07:23:59.885Z,16.57
2023-04-30T07:26:27.246Z,16.72
2023-04-30T07:28:54.425Z,16.74
2023-04-30T07:31:25.866Z,16.71
2023-04-30T07:33:55.276Z,16.78
2023-04-30T07:36:22.985Z,16.87
2023-04-30T07:38:50.206Z,16.84
2023-04-30T07:41:17.314Z,16.77
2023-04-30T07:43:44.583Z,17.01
2023-04-30T07:46:11.858Z,16.70
2023-04-30T07:48:39.462Z,16.98
2023-04-30T07:51:06.784Z,17.19
2023-04-30T07:53:34.092Z,17.07
2023-04-30T07:56:01.292Z,17.30
2023-04-30T07:58:28.527Z,17.07
2023-04-30T08:00:56.019Z,17.22
2023-04-30T08:03:23.261Z,17.31
2023-04-30T08:05:50.791Z,17.26
2023-04-30T08:08:18.025Z,17.28
2023-04-30T08:10:45.194Z,17.55
2023-04-30T08:13:16.123Z,17.70
2023-04-30T08:15:43.325Z,17.73
2023-04-30T08:18:10.609Z,17.50
2023-04-30T08:20:38.644Z,17.82
2023-04-30T08:23:06.035Z,18.11
2023-04-30T08:25:33.326Z,18.15
2023-04-30T08:28:00.667Z,18.18
2023-04-30T08:30:27.843Z,18.35
2023-04-30T08:32:57.515Z,18.43
2023-04-30T08:35:25.240Z,18.55
2023-04-30T08:37:53.402Z,18.60
2023-04-30T08:40:21.075Z,18.62
2023-04-30T08:43:09.071Z,18.63
2023-04-30T08:45:37.090Z,18.64
2023-04-30T08:48:05.892Z,18.44
2023-04-30T08:50:33.124Z,18.76
2023-04-30T08:53:01.864Z,19.02
2023-04-30T08:55:29.704Z,18.99
2023-04-30T08:57:56.852Z,19.10
2023-04-30T09:00:24.070Z,19.18
2023-04-30T09:02:51.283Z,19.11
2023-04-30T09:05:18.520Z,19.45
2023-04-30T09:08:02.394Z,19.80
2023-04-30T09:10:34.051Z,19.96
2023-04-30T09:13:09.367Z,20.08
2023-04-30T09:15:41.638Z,20.19
2023-04-30T09:18:18.263Z,20.30
2023-04-30T09:21:02.006Z,19.37
2023-04-30T09:23:30.441Z,19.75
2023-04-30T09:25:57.908Z,19.90
2023-04-30T09:28:26.595Z,20.00
2023-04-30T09:30:56.768Z,20.06
2023-04-30T09:33:24.073Z,19.88
2023-04-30T09:35:51.242Z,19.91
2023-04-30T09:38:32.992Z,20.16
2023-04-30T09:41:02.071Z,20.24
2023-04-30T09:43:44.974Z,20.13
2023-04-30T09:46:12.253Z,19.37
2023-04-30T09:48:41.972Z,20.11
2023-04-30T09:51:09.137Z,20.37
2023-04-30T09:53:41.187Z,20.66
2023-04-30T09:56:09.234Z,20.29
2023-04-30T09:58:38.890Z,20.64
2023-04-30T10:01:08.998Z,20.78
2023-04-30T10:03:36.999Z,20.58
2023-04-30T10:06:04.462Z,20.55
2023-04-30T10:08:47.238Z,20.72
2023-04-30T10:11:21.455Z,20.84
2023-04-30T10:14:04.370Z,20.79
2023-04-30T10:16:51.569Z,20.73
2023-04-30T10:19:34.340Z,20.87
2023-04-30T10:22:02.486Z,20.53
2023-04-30T10:24:30.374Z,20.74
2023-04-30T10:26:58.546Z,20.94
2023-04-30T10:29:25.849Z,20.66
2023-04-30T10:31:54.476Z,20.69
2023-04-30T10:34:55.301Z,21.05
2023-04-30T10:37:44.173Z,20.99
2023-04-30T10:40:12.093Z,20.89
2023-04-30T10:42:50.046Z,20.68
2023-04-30T10:45:17.529Z,20.30
2023-04-30T10:47:48.393Z,21.10
2023-04-30T10:50:15.663Z,21.79
2023-04-30T10:52:44.583Z,21.67
2023-04-30T10:55:17.318Z,22.03
2023-04-30T10:57:46.576Z,21.70
2023-04-30T11:00:14.476Z,21.50
2023-04-30T11:02:48.681Z,20.91
2023-04-30T11:05:20.527Z,21.42
2023-04-30T11:07:50.719Z,21.49
2023-04-30T11:10:28.354Z,22.00
2023-04-30T11:12:56.219Z,21.31
2023-04-30T11:15:45.864Z,21.93
2023-04-30T11:18:14.287Z,21.25
2023-04-30T11:20:42.235Z,21.96
2023-04-30T11:23:28.176Z,22.57
2023-04-30T11:26:04.816Z,23.03
2023-04-30T11:28:35.758Z,22.76
2023-04-30T11:31:04.173Z,22.52
2023-04-30T11:33:33.360Z,22.34
2023-04-30T11:36:02.386Z,21.88
2023-04-30T11:38:35.979Z,20.36
2023-04-30T11:41:12.696Z,21.12
2023-04-30T11:43:39.809Z,21.23
2023-04-30T11:46:17.503Z,21.43
2023-04-30T11:48:46.732Z,20.82
2023-04-30T11:51:20.645Z,19.92
2023-04-30T11:53:50.718Z,20.73
2023-04-30T11:56:24.228Z,20.63
2023-04-30T11:58:56.066Z,20.41
2023-04-30T12:01:30.319Z,20.92
2023-04-30T12:03:57.746Z,20.09
2023-04-30T12:06:28.783Z,20.25
2023-04-30T12:09:00.017Z,20.26
2023-04-30T12:11:30.256Z,20.21
2023-04-30T12:14:07.639Z,19.77
2023-04-30T12:16:46.099Z,19.89
2023-04-30T12:19:13.927Z,19.48
2023-04-30T12:21:49.672Z,19.84
2023-04-30T12:24:19.424Z,19.75
2023-04-30T12:26:47.940Z,19.79
2023-04-30T12:29:18.591Z,19.99
2023-04-30T12:31:50.820Z,19.77
2023-04-30T12:34:18.874Z,19.74
2023-04-30T12:36:46.046Z,20.28
2023-04-30T12:39:16.100Z,20.36
2023-04-30T12:41:49.320Z,20.47
2023-04-30T12:44:27.657Z,20.28
2023-04-30T12:47:00.888Z,20.46
2023-04-30T12:49:33.555Z,20.40
2023-04-30T12:52:12.391Z,20.44
2023-04-30T12:54:40.578Z,20.16
2023-04-30T12:57:13.061Z,19.86
2023-04-30T13:00:00.896Z,20.47
2023-04-30T13:02:32.000Z,19.94
2023-04-30T13:04:59.899Z,20.29
2023-04-30T13:07:27.240Z,20.22
2023-04-30T13:09:54.549Z,20.20
2023-04-30T13:12:21.955Z,20.47
2023-04-30T13:14:49.290Z,20.13
2023-04-30T13:17:18.280Z,19.79
2023-04-30T13:19:45.463Z,20.80
2023-04-30T13:22:12.730Z,21.13
2023-04-30T13:24:40.303Z,21.04
2023-04-30T13:27:07.496Z,20.68
2023-04-30T13:29:34.662Z,20.90
2023-04-30T13:32:02.375Z,21.15
2023-04-30T13:34:29.568Z,21.80
2023-04-30T13:36:56.742Z,22.21
2023-04-30T13:39:23.934Z,22.14
2023-04-30T13:41:51.120Z,22.36
2023-04-30T13:44:18.605Z,22.47
2023-04-30T13:46:46.024Z,21.68
2023-04-30T13:49:13.230Z,20.69
2023-04-30T13:51:40.429Z,20.70
2023-04-30T13:54:07.560Z,20.97
2023-04-30T13:56:34.793Z,21.14
2023-04-30T13:59:03.025Z,22.21
2023-04-30T14:01:34.823Z,22.38
2023-04-30T14:04:02.354Z,22.67
2023-04-30T14:06:32.095Z,21.67
2023-04-30T14:08:59.411Z,22.18
2023-04-30T14:11:27.497Z,22.52
2023-04-30T14:13:55.299Z,23.35
2023-04-30T14:16:22.624Z,22.63
2023-04-30T14:18:49.867Z,21.66
2023-04-30T14:21:17.144Z,21.14
2023-04-30T14:23:46.549Z,21.20
2023-04-30T14:26:14.578Z,21.75
2023-04-30T14:28:41.767Z,21.42
2023-04-30T14:31:10.342Z,21.54
2023-04-30T14:33:37.567Z,21.52
2023-04-30T14:36:05.852Z,20.70
2023-04-30T14:38:33.003Z,20.67
2023-04-30T14:41:00.272Z,21.31
2023-04-30T14:43:27.449Z,21.56
2023-04-30T14:45:54.673Z,21.53
2023-04-30T14:48:21.973Z,21.30
2023-04-30T14:50:49.263Z,20.79
2023-04-30T14:53:16.436Z,21.32
2023-04-30T14:55:43.550Z,21.30
2023-04-30T14:58:10.711Z,21.60
2023-04-30T15:00:37.858Z,21.41
2023-04-30T15:03:05.156Z,21.42
2023-04-30T15:05:32.760Z,21.60
2023-04-30T15:07:59.891Z,21.92
2023-04-30T15:10:27.237Z,22.02
2023-04-30T15:12:54.392Z,22.25
2023-04-30T15:15:24.974Z,22.09
2023-04-30T15:17:52.746Z,22.54
2023-04-30T15:20:19.949Z,22.94
2023-04-30T15:22:47.087Z,22.57
2023-04-30T15:25:14.385Z,22.43
2023-04-30T15:27:41.656Z,22.66
2023-04-30T15:30:10.317Z,23.00
2023-04-30T15:32:37.672Z,23.01
2023-04-30T15:35:06.700Z,22.86
2023-04-30T15:37:34.593Z,22.75
2023-04-30T15:40:01.794Z,22.66
2023-04-30T15:42:29.514Z,22.71
2023-04-30T15:44:56.713Z,22.43
2023-04-30T15:47:25.484Z,22.53
2023-04-30T15:49:52.793Z,22.30
2023-04-30T15:52:20.544Z,22.02
2023-04-30T15:54:47.720Z,21.71
2023-04-30T15:57:15.131Z,21.68
2023-04-30T15:59:42.321Z,20.99
2023-04-30T16:02:09.594Z,21.57
2023-04-30T16:04:36.736Z,21.45
2023-04-30T16:07:04.678Z,21.27
2023-04-30T16:09:32.582Z,21.22
2023-04-30T16:11:59.965Z,20.82
2023-04-30T16:14:27.152Z,20.37
2023-04-30T16:16:54.787Z,20.02
2023-04-30T16:19:21.972Z,19.43
2023-04-30T16:21:49.358Z,19.13
2023-04-30T16:24:16.612Z,19.00
2023-04-30T16:26:43.860Z,18.95
2023-04-30T16:29:11.099Z,18.91
2023-04-30T16:31:38.410Z,18.83
2023-04-30T16:34:05.978Z,18.73
2023-04-30T16:36:33.121Z,18.74
2023-04-30T16:39:00.302Z,18.46
2023-04-30T16:41:27.417Z,18.49
2023-04-30T16:43:54.598Z,18.48
2023-04-30T16:46:21.823Z,18.38
2023-04-30T16:48:49.451Z,18.47
2023-04-30T16:51:16.626Z,18.38
2023-04-30T16:53:44.043Z,18.37
2023-04-30T16:56:11.143Z,18.32
2023-04-30T16:58:38.689Z,18.34
2023-04-30T17:01:05.980Z,18.30
2023-04-30T17:03:34.768Z,18.22
2023-04-30T17:06:02.228Z,18.21
2023-04-30T17:08:29.444Z,18.19
2023-04-30T17:10:56.719Z,18.22
2023-04-30T17:13:23.936Z,18.11
2023-04-30T17:15:51.230Z,18.00
2023-04-30T17:18:18.412Z,17.93
2023-04-30T17:20:46.517Z,17.90
2023-04-30T17:23:13.687Z,17.91
2023-04-30T17:25:40.854Z,17.84
2023-04-30T17:28:07.995Z,17.89
2023-04-30T17:30:36.050Z,17.78
2023-04-30T17:33:04.399Z,17.83
2023-04-30T17:35:31.654Z,17.75
2023-04-30T17:37:59.397Z,17.68
2023-04-30T17:40:26.817Z,17.67
2023-04-30T17:42:54.183Z,17.64
2023-04-30T17:45:21.439Z,17.64
2023-04-30T17:47:48.649Z,17.58
2023-04-30T17:50:16.186Z,17.59
2023-04-30T17:52:43.389Z,17.61
2023-04-30T17:55:11.304Z,17.55
2023-04-30T17:57:38.506Z,17.55
2023-04-30T18:00:09.153Z,17.49
2023-04-30T18:02:42.086Z,17.45
2023-04-30T18:05:11.576Z,17.38
2023-04-30T18:07:38.780Z,17.33
2023-04-30T18:10:07.322Z,17.33
2023-04-30T18:12:35.844Z,17.30
2023-04-30T18:15:03.214Z,17.23
2023-04-30T18:17:33.527Z,17.23
2023-04-30T18:20:02.385Z,17.10
2023-04-30T18:22:29.604Z,17.08
2023-04-30T18:24:57.016Z,16.97
2023-04-30T18:27:24.184Z,16.94
2023-04-30T18:29:52.579Z,16.90
2023-04-30T18:32:19.989Z,16.79
2023-04-30T18:34:47.168Z,16.74
2023-04-30T18:37:14.312Z,16.74
2023-04-30T18:39:41.540Z,16.68
2023-04-30T18:42:09.421Z,16.61
2023-04-30T18:44:38.855Z,16.57
2023-04-30T18:47:06.812Z,16.49
2023-04-30T18:49:33.974Z,16.44
2023-04-30T18:52:01.262Z,16.42
2023-04-30T18:54:28.500Z,16.43
2023-04-30T18:56:55.671Z,16.44
2023-04-30T18:59:22.869Z,16.41
2023-04-30T19:01:50.089Z,16.36
2023-04-30T19:04:17.399Z,16.30
2023-04-30T19:06:45.929Z,16.27
2023-04-30T19:09:14.976Z,16.25
2023-04-30T19:11:42.283Z,16.27
2023-04-30T19:14:09.492Z,16.26
2023-04-30T19:16:36.895Z,16.21
2023-04-30T19:19:04.194Z,16.20
2023-04-30T19:21:32.558Z,16.16
2023-04-30T19:24:00.410Z,16.16
2023-04-30T19:26:27.850Z,16.17
2023-04-30T19:28:55.399Z,16.17
2023-04-30T19:31:22.778Z,16.13
2023-04-30T19:33:50.220Z,16.12
2023-04-30T19:36:17.588Z,16.10
2023-04-30T19:38:44.841Z,16.08
2023-04-30T19:41:11.969Z,16.07
2023-04-30T19:43:39.380Z,16.02
2023-04-30T19:46:07.355Z,16.03
2023-04-30T19:48:34.640Z,16.06
2023-04-30T19:51:05.036Z,16.01
2023-04-30T19:53:32.309Z,16.01
2023-04-30T19:55:59.824Z,16.00
2023-04-30T19:58:26.983Z,15.99
2023-04-30T20:00:55.776Z,15.92
2023-04-30T20:03:25.124Z,15.91
2023-04-30T20:05:52.468Z,15.89
2023-04-30T20:08:19.729Z,15.86
2023-04-30T20:10:47.905Z,15.80
2023-04-30T20:13:15.850Z,15.81
2023-04-30T20:15:43.953Z,15.74
2023-04-30T20:18:12.430Z,15.69
2023-04-30T20:20:39.611Z,15.70
2023-04-30T20:23:17.807Z,15.67
2023-04-30T20:25:46.577Z,15.65
2023-04-30T20:28:16.529Z,15.62
2023-04-30T20:30:44.096Z,15.62
2023-04-30T20:33:13.177Z,15.58
2023-04-30T20:35:47.663Z,15.51
2023-04-30T20:38:18.006Z,15.46
2023-04-30T20:40:47.060Z,15.44
2023-04-30T20:43:14.622Z,15.50
2023-04-30T20:45:44.803Z,15.45
2023-04-30T20:48:12.157Z,15.42
2023-04-30T20:50:39.972Z,15.40
2023-04-30T20:53:08.391Z,15.41
2023-04-30T20:55:37.485Z,15.39
2023-04-30T20:58:04.856Z,15.40
2023-04-30T21:00:31.971Z,15.41
2023-04-30T21:02:59.255Z,15.42
2023-04-30T21:05:28.457Z,15.45
2023-04-30T21:08:00.793Z,15.42
2023-04-30T21:10:35.208Z,15.41
2023-04-30T21:13:05.300Z,15.36
2023-04-30T21:15:39.099Z,15.39
2023-04-30T21:18:06.288Z,15.38
2023-04-30T21:20:33.459Z,15.34
2023-04-30T21:23:02.236Z,15.29
2023-04-30T21:25:29.433Z,15.25
2023-04-30T21:27:56.966Z,15.29
2023-04-30T21:30:26.309Z,15.34
2023-04-30T21:32:58.904Z,15.29
2023-04-30T21:35:29.839Z,15.28
2023-04-30T21:37:59.344Z,15.30
2023-04-30T21:40:26.530Z,15.31
2023-04-30T21:42:53.744Z,15.32
2023-04-30T21:45:21.016Z,15.32
2023-04-30T21:47:48.792Z,15.32
2023-04-30T21:50:16.437Z,15.29
2023-04-30T21:52:43.853Z,15.27
2023-04-30T21:55:11.091Z,15.26
2023-04-30T21:57:38.222Z,15.22
2023-04-30T22:00:07.005Z,15.28
2023-04-30T22:02:35.156Z,15.24
2023-04-30T22:05:03.065Z,15.26
2023-04-30T22:07:30.517Z,15.27
2023-04-30T22:09:58.308Z,15.24
2023-04-30T22:12:25.693Z,15.20
2023-04-30T22:14:54.728Z,15.24
2023-04-30T22:17:22.042Z,15.20
2023-04-30T22:19:49.191Z,15.20
2023-04-30T22:22:16.568Z,15.20
2023-04-30T22:24:43.738Z,15.22
2023-04-30T22:27:11.036Z,15.19
2023-04-30T22:29:38.402Z,15.18
2023-04-30T22:32:07.071Z,15.14
2023-04-30T22:34:40.860Z,15.10
2023-04-30T22:37:12.176Z,15.12
2023-04-30T22:39:39.450Z,15.10
2023-04-30T22:42:08.403Z,15.06
2023-04-30T22:44:36.741Z,15.06
2023-04-30T22:47:04.214Z,15.07
2023-04-30T22:49:32.495Z,15.05
2023-04-30T22:52:00.100Z,15.06
2023-04-30T22:54:27.498Z,15.03
2023-04-30T22:56:54.649Z,15.01
2023-04-30T22:59:21.990Z,15.09
2023-04-30T23:01:49.277Z,15.08
2023-04-30T23:04:16.522Z,15.02
2023-04-30T23:06:43.897Z,14.97
2023-04-30T23:09:12.713Z,15.01
2023-04-30T23:11:39.899Z,15.01
2023-04-30T23:14:07.040Z,15.00
2023-04-30T23:16:34.199Z,15.01
2023-04-30T23:19:01.579Z,15.01
2023-04-30T23:21:28.736Z,15.02
2023-04-30T23:23:55.893Z,15.04
2023-04-30T23:26:23.175Z,15.07
2023-04-30T23:28:51.158Z,15.08
2023-04-30T23:31:18.483Z,15.05
2023-04-30T23:33:45.616Z,15.01
2023-04-30T23:36:12.757Z,14.94
2023-04-30T23:38:40.102Z,14.95
2023-04-30T23:41:07.643Z,14.93
2023-04-30T23:43:34.897Z,14.94
2023-04-30T23:46:02.115Z,14.96
2023-04-30T23:48:30.359Z,14.91
2023-04-30T23:51:05.565Z,14.83
2023-04-30T23:53:32.727Z,14.84
2023-04-30T23:56:00.227Z,14.86
2023-04-30T23:58:31.988Z,14.86
